• Join FlightAware (Why Join?)
  • Login
  • US Flag 
01:00PM EDT


 

Airport Tracker/Info


-or-


 

Live Flight TrackerFlight Track Log ✈ KAP5 ✈ 29-Jun-2013 ✈ KBOS - KMVY

Flight Track Log - Related Links

Times and Time Zones

All times are in EDT time to prevent confusion due to time zone crossing. See the KAP5 flight status page for this flight to view local times or setup timezone preferences in your user account.

Time Position Orientation Groundspeed Altitude Reporting Facility
EDT Latitude Longitude Course Direction KTS MPH feet Rate Location/Type
09:27AM 42.3667 -71.0167 216° Southwest 105 121 300  Level KA90
09:28AM 42.3333 -71.0500 216° Southwest 127 146 1,500 900 Climbing KA90
09:29AM 42.3167 -71.0833 236° Southwest 111 128 2,300 660 Climbing KA90
09:30AM 42.2833 -71.1000 200° South 112 129 2,900 600 Climbing KA90
09:31AM 42.2667 -71.0833 143° Southeast 126 145 3,600 600 Climbing KA90
09:32AM 42.2333 -71.0500 143° Southeast 126 145 4,200 540 Climbing KA90
09:33AM 42.2167 -71.0167 124° Southeast 132 152 4,800 360 Climbing KA90
09:34AM 42.1833 -70.9667 132° Southeast 143 165 5,000 60 Climbing KA90
09:35AM 42.1500 -70.9500 160° South 153 176 5,000  Level KA90
09:36AM 42.1000 -70.9333 166° South 158 182 5,000  Level KA90
09:38AM 42.0668 -70.9074 150° Southeast  Level FlightAware Approximate
09:45AM 41.8386 -70.7811 161° South  Level FlightAware Approximate
09:46AM 41.8050 -70.7659 161° South  Level FlightAware Approximate
09:47AM 41.7715 -70.7506 161° South  Level FlightAware Approximate
09:48AM 41.7379 -70.7354 161° South  Level FlightAware Approximate
09:49AM 41.7039 -70.7223 164° South  Level FlightAware Approximate
09:50AM 41.6698 -70.7095 164° South  Level FlightAware Approximate
09:51AM 41.6356 -70.6967 164° South  Level FlightAware Approximate
09:52AM 41.6015 -70.6839 164° South  Level FlightAware Approximate
09:53AM 41.5674 -70.6711 164° South  Level FlightAware Approximate
09:54AM 41.5333 -70.6583 164° South  Level FlightAware Approximate
09:55AM 41.4992 -70.6455 164° South  Level FlightAware Approximate
09:56AM 41.4651 -70.6327 163° South  Level FlightAware Approximate
09:57AM 41.4312 -70.6191 163° South  Level FlightAware Approximate
09:58AM 41.3972 -70.6056 163° South  Level FlightAware Approximate
09:59AM 41.3833 -70.6000 163° South  Level FlightAware Approximate
10:00AM 41.3934 -70.6139 163° South  Level Estimated
10:01AM 41.3934 -70.6139 163° South  Level Estimated
10:02AM 41.3934 -70.6139 163° South  Level Estimated
10:03AM 41.3934 -70.6139 163° South  Level Estimated
10:04AM 41.3934 -70.6139 163° South  Level Estimated
10:05AM 41.3934 -70.6139 163° South  Level Estimated
10:06AM 41.3934 -70.6139 163° South  Level Estimated
10:07AM 41.3934 -70.6139 163° South  Level Estimated
10:08AM 41.3934 -70.6139 163° South  Level Estimated